Hovedside
METAR-TAF:

METAR-TAF

Lufthavner :

Ålesund lufthavn. Vigra

Ålesund, Norge

breddegrad: 62-34N, lengdegrad: 006-07E, høyde over havet: 2 m

Gjeldene værobservasjon

Denne rapporten ble laget for 37 minutter siden, klokken 18:50 UTC
Vind 16 kt fra Sør
Temperatur 5°C
Luftfuktighet 70%
Trykk 980 hPa
Sikt 10 km eller mer
Få skyer i en høyde av 3500 ft, Tårnskyer (cumulus).

METAR: ENAL 121850Z 18016KT 9999 FEW035TCU 05/M00 Q0980

Tid: 20:27 (19:27 UTC)

Varsel

Denne rapporten ble laget for 2 timer og 27 minutter siden, klokken 17:00 UTC
Varsel gyldig fra 12. klokken 18 UTC til 12. klokken 23 UTC
Vind 10 kt fra Sør
Sikt 10 km eller mer
Spredte skyer i en høyde av 3000 ft
Sannsynlighet 30%
fra 12. klokken 18 UTC til 12. klokken 23 UTC
Vind 15 kt fra Sør med vindkast opp mot 25 kt

TAF: ENAL 121700Z 1218/1223 18010KT 9999 SCT030 PROB30 1218/1223 19015G25KT

Værobservasjoner og værvarsel for over 4000 flyplasser (METAR- og TAF-rapporter).

Tilgjengelige stasjoner er representert av de røde og gule prikkene på kartet.

Hold musepekeren over prikken for å se navnet på stasjonen.

Klikk så for å se værobservasjoner og -varsler.

For å forandre kartet kan du klikke på den grønne knappen med svart kryss for å zoome inn, på den grønne knappen med strek for å zoome ut, eller på de grønne pilene for å se tilstøtende kart.


METAR-TAF: